Time;durP1;ratioP1;P1;durP2;ratioP2;P2;SDS_P1;SDS_P2;PMS_P1;PMS_P2;Temp;Humidity;BMP_temperature;BMP_pressure;BME280_temperature;BME280_humidity;BME280_pressure;Samples;Min_cycle;Max_cycle;Signal;HPM_P1;HPM_P2
2021/04/01 00:01:04;;;;;;;25.23;22.30;;;12.70;99.90;;;;;;4996363;28;20633;-68
2021/04/01 00:03:38;;;;;;;25.53;22.73;;;12.70;99.90;;;;;;4997686;28;21313;-65
2021/04/01 00:06:14;;;;;;;28.60;23.00;;;12.60;99.90;;;;;;4997809;28;20618;-64
2021/04/01 00:08:52;;;;;;;26.03;23.00;;;12.70;99.90;;;;;;5000040;28;21029;-65
2021/04/01 00:11:21;;;;;;;27.40;22.20;;;12.70;99.90;;;;;;4998435;28;21278;-69
2021/04/01 00:14:01;;;;;;;26.30;22.20;;;12.70;99.90;;;;;;4996142;28;21251;-69
2021/04/01 00:16:36;;;;;;;25.50;22.33;;;12.70;99.90;;;;;;4994861;28;20934;-69
2021/04/01 00:19:05;;;;;;;24.43;21.07;;;12.70;99.90;;;;;;4998018;28;20711;-68
2021/04/01 00:21:35;;;;;;;26.80;22.10;;;12.60;99.90;;;;;;4998901;28;20654;-69
2021/04/01 00:24:06;;;;;;;27.63;22.80;;;12.60;99.90;;;;;;4997143;28;20638;-66
2021/04/01 00:26:41;;;;;;;24.53;22.03;;;12.60;99.90;;;;;;4998001;28;20624;-63
2021/04/01 00:29:09;;;;;;;26.60;21.80;;;12.70;99.90;;;;;;5000159;28;20672;-62
2021/04/01 00:31:37;;;;;;;26.47;22.53;;;12.70;99.90;;;;;;4989956;28;20745;-63
2021/04/01 00:34:08;;;;;;;25.70;22.50;;;12.70;99.90;;;;;;4999767;28;21387;-64
2021/04/01 00:36:43;;;;;;;26.37;23.60;;;12.60;99.90;;;;;;4993199;28;20720;-69
2021/04/01 00:39:18;;;;;;;25.47;22.87;;;12.60;99.90;;;;;;4991774;28;23422;-68
2021/04/01 00:41:46;;;;;;;25.97;23.37;;;12.60;99.90;;;;;;4998489;28;20712;-68
2021/04/01 00:44:17;;;;;;;24.27;21.63;;;12.60;99.90;;;;;;4999235;28;20671;-67
2021/04/01 00:46:50;;;;;;;26.43;23.73;;;12.60;99.90;;;;;;4999644;28;20970;-67
2021/04/01 00:49:24;;;;;;;27.20;23.77;;;12.60;99.90;;;;;;4998350;28;20622;-67
2021/04/01 00:51:59;;;;;;;24.13;21.63;;;12.50;99.90;;;;;;4995760;28;21073;-66
2021/04/01 00:54:28;;;;;;;25.00;22.40;;;12.60;99.90;;;;;;4990605;28;20673;-67
2021/04/01 00:56:59;;;;;;;26.07;23.37;;;12.60;99.90;;;;;;4997161;28;21431;-66
2021/04/01 00:59:30;;;;;;;24.80;22.30;;;12.60;99.90;;;;;;4997917;28;20634;-67
2021/04/01 01:02:09;;;;;;;26.50;23.60;;;12.60;99.90;;;;;;5000847;28;22306;-66
2021/04/01 01:04:50;;;;;;;25.40;22.70;;;12.60;99.90;;;;;;4996705;28;20653;-67
2021/04/01 01:07:37;;;;;;;25.60;22.23;;;12.60;99.90;;;;;;5018738;28;20646;-68
2021/04/01 01:10:12;;;;;;;25.13;22.40;;;12.60;99.90;;;;;;5001649;28;20618;-69
2021/04/01 01:12:38;;;;;;;29.97;25.17;;;12.60;99.90;;;;;;5000100;28;20653;-68
2021/04/01 01:15:11;;;;;;;27.03;22.80;;;12.60;99.90;;;;;;5002827;28;20755;-67
2021/04/01 01:17:54;;;;;;;;;;;;;;;;;;;;;
2021/04/01 01:20:27;;;;;;;26.67;23.80;;;12.60;99.90;;;;;;5000699;28;20582;-67
2021/04/01 01:22:59;;;;;;;26.80;23.93;;;12.60;99.90;;;;;;5001027;28;20757;-67
2021/04/01 01:25:34;;;;;;;27.47;24.57;;;12.60;99.90;;;;;;4998031;28;20598;-67
2021/04/01 01:28:13;;;;;;;27.67;22.97;;;12.60;99.90;;;;;;4999255;28;20590;-67
2021/04/01 01:30:41;;;;;;;27.40;24.33;;;12.60;99.90;;;;;;5002700;28;21623;-68
2021/04/01 01:33:16;;;;;;;27.37;24.00;;;12.60;99.90;;;;;;4999627;28;20657;-68
2021/04/01 01:35:46;;;;;;;26.27;23.30;;;12.60;99.90;;;;;;5001032;28;21322;-65
2021/04/01 01:38:23;;;;;;;26.00;23.13;;;12.60;99.90;;;;;;5003684;28;21010;-63
2021/04/01 01:40:58;;;;;;;26.40;23.70;;;12.60;99.90;;;;;;5002683;28;20614;-62
2021/04/01 01:43:29;;;;;;;27.83;24.83;;;12.60;99.90;;;;;;5002773;28;20642;-62
2021/04/01 01:46:00;;;;;;;28.90;23.93;;;12.60;99.90;;;;;;4998563;28;20586;-63
2021/04/01 01:48:28;;;;;;;28.93;25.43;;;12.60;99.90;;;;;;5002373;28;20969;-62
2021/04/01 01:50:58;;;;;;;30.10;25.37;;;12.60;99.90;;;;;;5001267;28;21350;-64
2021/04/01 01:53:35;;;;;;;28.67;25.70;;;12.60;99.90;;;;;;4998487;28;20638;-63
2021/04/01 01:56:13;;;;;;;32.40;26.53;;;12.60;99.90;;;;;;5001983;28;21460;-64
2021/04/01 01:58:44;;;;;;;28.60;25.60;;;12.60;99.90;;;;;;4999491;28;20622;-61
2021/04/01 02:01:12;;;;;;;27.40;24.30;;;12.60;99.90;;;;;;4998967;28;20637;-64
2021/04/01 02:03:37;;;;;;;27.10;24.20;;;12.60;99.90;;;;;;5003187;28;20665;-63
2021/04/01 02:06:03;;;;;;;32.23;25.93;;;12.60;99.90;;;;;;5000607;28;21255;-62
2021/04/01 02:08:36;;;;;;;31.03;26.90;;;12.60;99.90;;;;;;5000617;28;20540;-62
2021/04/01 02:11:14;;;;;;;;;;;;;;;;;;;;;
2021/04/01 02:14:10;;;;;;;;;;;;;;;;;;;;;
2021/04/01 02:16:38;;;;;;;32.40;27.97;;;12.60;99.90;;;;;;5004976;28;20625;-63
2021/04/01 02:19:07;;;;;;;35.13;28.33;;;12.60;99.90;;;;;;5001037;28;20979;-64
2021/04/01 02:21:33;;;;;;;31.50;27.87;;;12.60;99.90;;;;;;4999086;28;20645;-63
2021/04/01 02:24:00;;;;;;;33.23;28.07;;;12.60;99.90;;;;;;4999688;28;22539;-64
2021/04/01 02:26:28;;;;;;;37.63;29.70;;;12.60;99.90;;;;;;5002435;28;20207;-63
2021/04/01 02:28:59;;;;;;;38.57;30.80;;;12.60;99.90;;;;;;5000633;28;20611;-67
2021/04/01 02:31:27;;;;;;;41.53;31.10;;;12.60;99.90;;;;;;5000804;28;21412;-66
2021/04/01 02:34:00;;;;;;;40.30;31.77;;;12.70;99.90;;;;;;5002177;28;22259;-66
2021/04/01 02:36:29;;;;;;;36.47;30.00;;;12.80;99.90;;;;;;4991366;28;20631;-66
2021/04/01 02:38:59;;;;;;;36.67;29.20;;;12.80;99.90;;;;;;4996322;28;20637;-68
2021/04/01 02:41:29;;;;;;;37.70;30.40;;;12.80;99.90;;;;;;4999048;28;21301;-66
2021/04/01 02:44:01;;;;;;;40.47;32.00;;;12.80;99.90;;;;;;4999023;28;20630;-69
2021/04/01 02:46:26;;;;;;;38.97;31.17;;;12.80;99.90;;;;;;4999964;28;20599;-68
2021/04/01 02:48:54;;;;;;;36.87;29.10;;;12.80;99.90;;;;;;5000524;28;20621;-67
2021/04/01 02:51:20;;;;;;;39.60;30.30;;;12.80;99.90;;;;;;4994991;28;20796;-67
2021/04/01 02:53:48;;;;;;;37.73;30.17;;;12.80;99.90;;;;;;4995433;28;20676;-68
2021/04/01 02:56:25;;;;;;;38.57;31.70;;;12.80;99.90;;;;;;4993499;28;20207;-68
2021/04/01 02:58:56;;;;;;;35.20;30.10;;;12.80;99.90;;;;;;4996360;28;20746;-68
2021/04/01 03:01:24;;;;;;;38.70;31.60;;;12.90;99.90;;;;;;4994427;28;20680;-68
2021/04/01 03:04:32;;;;;;;38.93;31.07;;;12.90;99.90;;;;;;5000357;28;21509;-67
2021/04/01 03:07:00;;;;;;;35.73;28.03;;;12.90;99.90;;;;;;4993099;28;20630;-67
2021/04/01 03:09:27;;;;;;;36.00;29.53;;;12.80;99.90;;;;;;4999721;28;20648;-67
2021/04/01 03:12:07;;;;;;;36.13;30.93;;;12.80;99.90;;;;;;4993871;28;20660;-69
2021/04/01 03:14:32;;;;;;;39.40;31.80;;;12.80;99.90;;;;;;4992701;28;21166;-67
2021/04/01 03:16:58;;;;;;;37.23;30.50;;;12.80;99.90;;;;;;5004149;28;20627;-68
2021/04/01 03:19:35;;;;;;;36.67;29.93;;;12.70;99.90;;;;;;4999972;28;20283;-68
2021/04/01 03:22:12;;;;;;;39.00;31.53;;;12.80;99.90;;;;;;5000091;28;20227;-68
2021/04/01 03:24:38;;;;;;;40.27;31.67;;;12.70;99.90;;;;;;4997687;28;20629;-69
2021/04/01 03:27:12;;;;;;;39.73;30.57;;;12.80;99.90;;;;;;5014191;28;20630;-69
2021/04/01 03:30:13;;;;;;;42.80;32.77;;;12.80;99.90;;;;;;4993181;28;20273;-68
2021/04/01 03:32:39;;;;;;;47.20;33.03;;;12.80;99.90;;;;;;4995523;28;20694;-68
2021/04/01 03:35:10;;;;;;;39.10;32.67;;;12.80;99.90;;;;;;4998903;28;20640;-67
2021/04/01 03:37:41;;;;;;;41.60;31.60;;;12.80;99.90;;;;;;4994944;28;20630;-66
2021/04/01 03:40:08;;;;;;;41.47;34.20;;;12.60;99.90;;;;;;4998227;28;20619;-66
2021/04/01 03:42:53;;;;;;;39.13;31.87;;;12.80;99.90;;;;;;4990911;28;20973;-66
2021/04/01 03:45:21;;;;;;;37.80;30.83;;;12.80;99.90;;;;;;4995817;28;20591;-67
2021/04/01 03:47:47;;;;;;;38.80;30.47;;;12.80;99.90;;;;;;5001682;28;20630;-66
2021/04/01 03:50:17;;;;;;;39.80;31.97;;;12.80;99.90;;;;;;5001557;28;21275;-66
2021/04/01 03:52:47;;;;;;;38.10;31.77;;;12.80;99.90;;;;;;4999530;28;20798;-64
2021/04/01 04:01:28;;;;;;;40.70;31.37;;;12.80;99.90;;;;;;4998468;28;20709;-63
2021/04/01 04:03:53;;;;;;;;;;;;;;;;;;;;;
2021/04/01 04:09:32;;;;;;;42.67;32.63;;;12.70;99.90;;;;;;4999135;28;20730;-69
2021/04/01 04:14:45;;;;;;;41.60;30.80;;;12.70;99.90;;;;;;4995726;28;20670;-69
2021/04/01 04:17:18;;;;;;;43.50;32.33;;;12.70;99.90;;;;;;4998055;28;20613;-64
2021/04/01 04:19:44;;;;;;;43.43;31.90;;;12.70;99.90;;;;;;4999927;28;20737;-64
2021/04/01 04:22:12;;;;;;;44.70;34.07;;;12.70;99.90;;;;;;4997411;28;20746;-65
2021/04/01 04:24:40;;;;;;;45.73;33.00;;;12.70;99.90;;;;;;4995848;28;20194;-63
2021/04/01 04:27:21;;;;;;;46.87;33.80;;;12.70;99.90;;;;;;4998721;28;21201;-62
2021/04/01 04:29:59;;;;;;;44.20;34.43;;;12.70;99.90;;;;;;4998003;28;20745;-61
2021/04/01 04:32:39;;;;;;;;;;;;;;;;;;;;;
2021/04/01 04:35:14;;;;;;;45.80;34.80;;;12.70;99.90;;;;;;4999120;28;20953;-62
2021/04/01 04:37:42;;;;;;;42.43;34.00;;;12.70;99.90;;;;;;4996848;28;20934;-67
2021/04/01 04:40:10;;;;;;;44.17;33.03;;;12.70;99.90;;;;;;5000699;28;20624;-67
2021/04/01 04:42:36;;;;;;;43.33;33.30;;;12.60;99.90;;;;;;4994155;28;21014;-69
2021/04/01 04:45:23;;;;;;;48.63;35.00;;;12.60;99.90;;;;;;4998492;28;21183;-68
2021/04/01 04:47:56;;;;;;;45.50;33.57;;;12.60;99.90;;;;;;4996183;28;20637;-68
2021/04/01 04:50:21;;;;;;;46.90;35.37;;;12.60;99.90;;;;;;4999497;28;20671;-68
2021/04/01 04:52:52;;;;;;;45.77;33.50;;;12.60;99.90;;;;;;5000111;28;20647;-68
2021/04/01 04:55:26;;;;;;;48.80;35.13;;;12.60;99.90;;;;;;5001231;28;20770;-68
2021/04/01 05:06:16;;;;;;;44.50;33.50;;;12.60;99.90;;;;;;4991498;28;21289;-68
2021/04/01 05:08:44;;;;;;;44.33;34.10;;;12.50;99.90;;;;;;4995869;28;20583;-70
2021/04/01 05:11:10;;;;;;;45.70;33.90;;;12.50;99.90;;;;;;4992496;28;21039;-69
2021/04/01 05:13:35;;;;;;;47.13;34.43;;;12.40;99.90;;;;;;4991039;28;20641;-70
2021/04/01 05:16:01;;;;;;;45.87;35.27;;;12.40;99.90;;;;;;4985953;28;20227;-69
2021/04/01 05:18:27;;;;;;;48.70;34.20;;;12.40;99.90;;;;;;4995863;28;20381;-68
2021/04/01 05:20:57;;;;;;;48.33;35.93;;;12.30;99.90;;;;;;4993286;28;21124;-69
2021/04/01 05:23:31;;;;;;;49.87;36.20;;;12.30;99.90;;;;;;4993729;28;20705;-68
2021/04/01 05:28:51;;;;;;;48.50;36.67;;;12.30;99.90;;;;;;5002887;28;21750;-68
2021/04/01 05:31:19;;;;;;;48.47;36.93;;;12.30;99.90;;;;;;4993285;28;21765;-68
2021/04/01 05:33:48;;;;;;;46.73;35.80;;;12.30;99.90;;;;;;4994628;28;20627;-67
2021/04/01 05:36:30;;;;;;;46.03;34.53;;;12.30;99.90;;;;;;4994163;28;20615;-66
2021/04/01 05:38:58;;;;;;;49.73;37.00;;;12.30;99.90;;;;;;4991041;28;20895;-67
2021/04/01 05:41:26;;;;;;;52.53;37.10;;;12.30;99.90;;;;;;4996269;28;20737;-66
2021/04/01 05:44:01;;;;;;;51.20;37.27;;;12.30;99.90;;;;;;4987874;28;21618;-67
2021/04/01 05:46:40;;;;;;;51.00;36.50;;;12.40;99.90;;;;;;4983697;28;22878;-67
2021/04/01 05:49:27;;;;;;;46.90;34.20;;;12.30;99.90;;;;;;4990547;28;21354;-68
2021/04/01 05:52:24;;;;;;;47.90;34.67;;;12.30;99.90;;;;;;4993366;28;21020;-68
2021/04/01 05:55:28;;;;;;;51.40;37.67;;;12.30;99.90;;;;;;5002614;28;20645;-68
2021/04/01 06:05:34;;;;;;;50.40;35.13;;;12.40;99.90;;;;;;4975984;28;20598;-68
2021/04/01 06:08:09;;;;;;;49.37;37.13;;;12.40;99.90;;;;;;4983449;28;20630;-68
2021/04/01 06:10:36;;;;;;;50.57;38.43;;;12.40;99.90;;;;;;4990979;28;20669;-67
2021/04/01 06:13:08;;;;;;;49.50;36.10;;;12.50;99.90;;;;;;4984934;28;20706;-68
2021/04/01 06:15:35;;;;;;;50.20;35.73;;;12.40;99.90;;;;;;4990721;28;20629;-68
2021/04/01 06:18:11;;;;;;;50.70;36.90;;;12.50;99.90;;;;;;4983999;28;20652;-68
2021/04/01 06:20:39;;;;;;;54.43;39.27;;;12.40;99.90;;;;;;4987127;28;21086;-67
2021/04/01 06:23:04;;;;;;;53.77;37.33;;;12.40;99.90;;;;;;4984340;28;21321;-67
2021/04/01 06:25:37;;;;;;;54.33;37.50;;;12.40;99.90;;;;;;4989289;28;20651;-67
2021/04/01 06:28:06;;;;;;;54.23;37.33;;;12.40;99.90;;;;;;5000773;28;20187;-67
2021/04/01 06:30:59;;;;;;;52.53;37.27;;;12.30;99.90;;;;;;4993191;28;20607;-67
2021/04/01 06:33:27;;;;;;;53.83;39.77;;;12.40;99.90;;;;;;4986335;28;21134;-66
2021/04/01 06:36:00;;;;;;;55.50;39.13;;;12.40;99.90;;;;;;4996168;28;20853;-66
2021/04/01 06:38:35;;;;;;;56.90;38.90;;;12.40;99.90;;;;;;4996411;28;20726;-68
2021/04/01 06:41:13;;;;;;;57.77;39.40;;;12.40;99.90;;;;;;4985910;28;20618;-68
2021/04/01 06:43:49;;;;;;;57.00;39.63;;;12.40;99.90;;;;;;5007950;28;21077;-68
2021/04/01 06:46:16;;;;;;;54.33;38.70;;;12.40;99.90;;;;;;4985588;28;22346;-68
2021/04/01 06:51:33;;;;;;;56.27;39.47;;;12.30;99.90;;;;;;4986044;28;21243;-67
2021/04/01 06:54:12;;;;;;;54.03;37.60;;;12.20;99.90;;;;;;4991940;28;21104;-67
2021/04/01 07:02:22;;;;;;;52.83;37.93;;;12.20;99.90;;;;;;4981870;28;20634;-68
2021/04/01 07:04:51;;;;;;;61.50;41.70;;;12.10;99.90;;;;;;4989733;28;21293;-67
2021/04/01 07:07:19;;;;;;;57.93;38.60;;;12.20;99.90;;;;;;4985162;28;20623;-68
2021/04/01 07:12:44;;;;;;;58.03;39.93;;;12.20;99.90;;;;;;4983333;28;20833;-67
2021/04/01 07:15:17;;;;;;;62.30;43.23;;;12.10;99.90;;;;;;4992552;28;22498;-68
2021/04/01 07:17:45;;;;;;;57.03;41.20;;;12.20;99.90;;;;;;4989426;28;21158;-67
2021/04/01 07:20:43;;;;;;;58.53;40.47;;;12.20;99.90;;;;;;4989733;28;20614;-67
2021/04/01 07:48:02;;;;;;;60.60;41.50;;;12.30;99.90;;;;;;4981731;28;21208;-67
2021/04/01 07:50:38;;;;;;;57.00;40.13;;;12.30;99.90;;;;;;4984941;28;21421;-66
2021/04/01 07:53:04;;;;;;;60.50;40.83;;;12.40;99.90;;;;;;4982048;28;21221;-67
2021/04/01 07:55:37;;;;;;;60.67;40.20;;;12.40;99.90;;;;;;4990119;28;20614;-67
2021/04/01 08:00:58;;;;;;;59.93;39.13;;;12.40;99.90;;;;;;4982662;28;20591;-69
2021/04/01 08:06:23;;;;;;;58.80;39.20;;;12.20;99.90;;;;;;4996665;28;20624;-66
2021/04/01 08:08:51;;;;;;;54.17;39.90;;;12.10;99.90;;;;;;4992113;28;20705;-66
2021/04/01 08:11:34;;;;;;;57.33;38.17;;;12.00;99.90;;;;;;4998085;28;20650;-67
2021/04/01 08:14:18;;;;;;;46.07;33.13;;;12.00;99.90;;;;;;4991042;28;20658;-66
2021/04/01 08:16:53;;;;;;;47.80;31.40;;;11.90;99.90;;;;;;4982226;28;20700;-67
2021/04/01 08:19:24;;;;;;;41.57;29.50;;;11.70;99.90;;;;;;4991593;28;20583;-67
2021/04/01 08:21:52;;;;;;;42.50;30.73;;;11.70;99.90;;;;;;5008080;28;20895;-67
2021/04/01 08:24:43;;;;;;;38.57;29.63;;;11.70;99.90;;;;;;4991459;28;20643;-66
2021/04/01 08:27:24;;;;;;;40.70;30.30;;;11.80;99.90;;;;;;4980824;28;21148;-66
2021/04/01 08:35:13;;;;;;;40.03;29.17;;;12.00;99.90;;;;;;4982594;28;20652;-66
2021/04/01 08:38:03;;;;;;;37.67;28.43;;;12.10;99.90;;;;;;4999477;28;21191;-67
2021/04/01 08:40:29;;;;;;;40.47;28.23;;;12.40;99.90;;;;;;4981613;28;20640;-68
2021/04/01 08:43:14;;;;;;;40.70;29.20;;;12.30;99.90;;;;;;4987187;28;21628;-67
2021/04/01 08:46:09;;;;;;;41.67;29.37;;;12.30;99.90;;;;;;4980159;28;20271;-68
2021/04/01 08:49:17;;;;;;;37.10;28.73;;;12.30;99.90;;;;;;4985531;28;20614;-67
2021/04/01 08:52:07;;;;;;;38.10;26.83;;;12.30;99.90;;;;;;4994445;28;20646;-68
2021/04/01 08:54:39;;;;;;;33.87;24.97;;;12.20;99.90;;;;;;4986605;28;20650;-67
2021/04/01 08:57:10;;;;;;;36.27;25.37;;;12.20;99.90;;;;;;4977426;28;20626;-67
2021/04/01 08:59:46;;;;;;;34.37;24.37;;;12.30;99.90;;;;;;4980746;28;20614;-69
2021/04/01 09:02:14;;;;;;;32.40;24.80;;;12.50;99.90;;;;;;4988756;28;21420;-68
2021/04/01 09:04:47;;;;;;;35.17;24.93;;;12.40;99.90;;;;;;4984686;28;21299;-68
2021/04/01 09:07:17;;;;;;;28.40;22.43;;;12.50;99.90;;;;;;4981661;28;20694;-67
2021/04/01 09:09:48;;;;;;;28.40;21.80;;;12.50;99.90;;;;;;4980031;28;20607;-68
2021/04/01 09:12:23;;;;;;;28.23;21.40;;;12.70;99.90;;;;;;4980550;28;20741;-69
2021/04/01 09:15:06;;;;;;;29.40;20.67;;;12.80;99.90;;;;;;4976904;28;20680;-67
2021/04/01 09:17:34;;;;;;;23.73;19.43;;;12.90;99.90;;;;;;4985824;28;20610;-67
2021/04/01 09:20:15;;;;;;;23.03;18.63;;;13.00;99.90;;;;;;4981228;28;20666;-67
2021/04/01 09:22:46;;;;;;;23.17;18.17;;;13.00;99.90;;;;;;4986842;28;20658;-67
2021/04/01 09:25:14;;;;;;;22.63;16.70;;;13.10;99.90;;;;;;4985154;28;22690;-66
2021/04/01 09:27:44;;;;;;;22.20;17.10;;;13.20;99.90;;;;;;4990051;28;20622;-66
2021/04/01 09:30:11;;;;;;;21.33;15.97;;;13.60;99.90;;;;;;4994216;28;20987;-66
2021/04/01 09:32:38;;;;;;;17.60;14.57;;;13.40;99.90;;;;;;5003070;28;20660;-68
2021/04/01 09:35:08;;;;;;;19.80;14.30;;;13.20;99.90;;;;;;4989171;28;22233;-67
2021/04/01 09:37:33;;;;;;;13.93;12.03;;;13.40;99.90;;;;;;4990591;28;20618;-67
2021/04/01 09:40:12;;;;;;;15.40;12.10;;;13.50;99.90;;;;;;4992223;28;20768;-67
2021/04/01 09:42:42;;;;;;;15.30;12.23;;;13.60;99.90;;;;;;4989676;28;20277;-66
2021/04/01 09:45:13;;;;;;;12.00;9.90;;;13.70;99.90;;;;;;4978778;28;21183;-67
2021/04/01 09:47:44;;;;;;;14.23;11.03;;;13.70;99.90;;;;;;4990065;28;20630;-67
2021/04/01 09:50:14;;;;;;;13.10;10.37;;;13.80;99.90;;;;;;4991831;28;21257;-65
2021/04/01 09:52:51;;;;;;;12.73;10.07;;;13.80;99.90;;;;;;4989010;28;21010;-66
2021/04/01 09:55:17;;;;;;;11.93;10.00;;;13.90;99.90;;;;;;4994072;28;20594;-66
2021/04/01 09:57:47;;;;;;;13.00;9.20;;;14.00;99.90;;;;;;5004225;28;20676;-66
2021/04/01 10:00:48;;;;;;;10.83;9.57;;;14.00;99.90;;;;;;4984217;28;22472;-66
2021/04/01 10:03:37;;;;;;;11.33;10.07;;;14.00;99.90;;;;;;4986312;28;20654;-66
2021/04/01 10:06:02;;;;;;;14.40;10.00;;;13.90;99.90;;;;;;4989105;28;20622;-67
2021/04/01 10:08:30;;;;;;;12.10;9.83;;;13.80;99.90;;;;;;4991736;28;21203;-66
2021/04/01 10:10:59;;;;;;;14.90;8.53;;;13.80;99.90;;;;;;4990509;28;20322;-67
2021/04/01 10:13:27;;;;;;;9.77;7.40;;;13.70;99.90;;;;;;4990501;28;20739;-66
2021/04/01 10:15:55;;;;;;;11.87;7.67;;;13.50;99.90;;;;;;5008833;28;20630;-66
2021/04/01 10:18:33;;;;;;;7.20;6.13;;;13.30;99.90;;;;;;4988195;28;21071;-67
2021/04/01 10:21:03;;;;;;;11.17;6.83;;;13.10;99.90;;;;;;4998837;28;20640;-66
2021/04/01 10:23:29;;;;;;;10.27;7.57;;;12.90;99.90;;;;;;4976988;28;20657;-67
2021/04/01 10:26:07;;;;;;;9.83;7.83;;;12.80;99.90;;;;;;4979431;28;20626;-67
2021/04/01 10:31:18;;;;;;;10.93;7.07;;;12.50;99.90;;;;;;4994198;28;21033;-66
2021/04/01 10:33:55;;;;;;;10.40;7.80;;;12.40;99.90;;;;;;4992409;28;20677;-66
2021/04/01 10:36:26;;;;;;;11.73;7.43;;;12.40;99.90;;;;;;4996030;28;20619;-66
2021/04/01 10:38:58;;;;;;;9.40;7.50;;;12.20;99.90;;;;;;4989799;28;20604;-66
2021/04/01 10:41:25;;;;;;;8.40;6.40;;;12.30;99.90;;;;;;4989103;28;20635;-67
2021/04/01 10:43:59;;;;;;;5.97;5.20;;;12.30;99.90;;;;;;4988832;28;20814;-66
2021/04/01 10:46:25;;;;;;;5.73;5.13;;;12.20;99.90;;;;;;4989280;28;20710;-67
2021/04/01 10:48:55;;;;;;;7.67;5.30;;;12.10;99.90;;;;;;4990651;28;20648;-65
2021/04/01 10:51:22;;;;;;;7.03;5.63;;;12.10;99.90;;;;;;4991784;28;20653;-67
2021/04/01 10:53:48;;;;;;;6.83;5.13;;;12.10;99.90;;;;;;4999510;28;21422;-67
2021/04/01 10:56:15;;;;;;;4.90;4.40;;;12.10;99.90;;;;;;4990549;28;20618;-67
2021/04/01 10:58:54;;;;;;;4.70;4.30;;;11.90;99.90;;;;;;4984927;28;20614;-67
2021/04/01 11:01:32;;;;;;;5.17;4.03;;;11.90;99.90;;;;;;4984764;28;22658;-68
2021/04/01 11:04:02;;;;;;;4.47;4.07;;;11.90;99.90;;;;;;4994091;28;20652;-66
2021/04/01 11:06:31;;;;;;;5.60;4.00;;;11.80;99.90;;;;;;4985119;28;21573;-66
2021/04/01 11:08:59;;;;;;;4.77;3.80;;;11.80;99.90;;;;;;4983302;28;21392;-67
2021/04/01 11:11:37;;;;;;;4.47;4.03;;;11.70;99.90;;;;;;4985246;28;21257;-67
2021/04/01 11:14:03;;;;;;;4.53;4.13;;;11.70;99.90;;;;;;4988196;28;20647;-68
2021/04/01 11:16:31;;;;;;;4.30;3.90;;;11.70;99.90;;;;;;4981381;28;20806;-67
2021/04/01 11:19:00;;;;;;;5.13;4.63;;;11.70;99.90;;;;;;4983152;28;20192;-67
2021/04/01 11:21:31;;;;;;;4.83;4.33;;;11.80;99.90;;;;;;4984257;28;21480;-67
2021/04/01 11:23:57;;;;;;;6.17;3.83;;;11.90;99.90;;;;;;4971368;28;20767;-67
2021/04/01 11:26:28;;;;;;;4.27;3.80;;;12.00;99.90;;;;;;4978562;28;20699;-67
2021/04/01 11:28:54;;;;;;;5.20;4.40;;;12.10;99.90;;;;;;4982077;28;20199;-68
2021/04/01 11:31:26;;;;;;;5.27;4.70;;;12.20;99.90;;;;;;4975794;28;20645;-69
2021/04/01 11:34:00;;;;;;;5.00;4.30;;;12.40;99.90;;;;;;4987064;28;21102;-71
2021/04/01 11:36:30;;;;;;;3.90;3.50;;;12.60;99.90;;;;;;4982113;28;20604;-68
2021/04/01 11:39:00;;;;;;;5.63;3.80;;;12.80;99.90;;;;;;4978150;28;20834;-67
2021/04/01 11:41:27;;;;;;;4.10;3.70;;;12.90;99.90;;;;;;4977321;28;20658;-67
2021/04/01 11:43:55;;;;;;;4.27;3.80;;;12.90;99.90;;;;;;4982598;28;20634;-67
2021/04/01 11:46:22;;;;;;;3.90;3.50;;;13.00;99.90;;;;;;4978589;28;23192;-66
2021/04/01 11:48:49;;;;;;;4.17;3.70;;;13.10;99.90;;;;;;4978757;28;21056;-65
2021/04/01 11:51:31;;;;;;;3.90;3.60;;;13.30;99.90;;;;;;4973537;28;20793;-64
2021/04/01 11:53:57;;;;;;;3.97;3.57;;;13.50;99.90;;;;;;4992828;28;20666;-63
2021/04/01 11:56:33;;;;;;;3.90;3.50;;;13.70;99.90;;;;;;4984009;28;23363;-64
2021/04/01 11:59:19;;;;;;;4.33;3.93;;;13.90;99.90;;;;;;4988146;28;20730;-64
2021/04/01 12:01:52;;;;;;;3.97;3.57;;;14.00;99.90;;;;;;4979983;28;20631;-66
2021/04/01 12:04:20;;;;;;;4.00;3.53;;;14.10;99.90;;;;;;4989860;28;20642;-65
2021/04/01 12:06:46;;;;;;;4.23;3.87;;;14.00;99.90;;;;;;4984908;28;21183;-65
2021/04/01 12:09:14;;;;;;;3.90;3.40;;;13.90;99.90;;;;;;4975197;28;20610;-65
2021/04/01 12:11:44;;;;;;;3.60;3.30;;;13.90;99.90;;;;;;4979098;28;20335;-64
2021/04/01 12:14:15;;;;;;;4.33;3.83;;;14.00;99.90;;;;;;4978328;28;20657;-65
2021/04/01 12:16:41;;;;;;;3.87;3.07;;;14.20;99.90;;;;;;4976210;28;21342;-65
2021/04/01 12:19:07;;;;;;;2.83;2.63;;;14.30;99.90;;;;;;4979915;28;20633;-65
2021/04/01 12:21:33;;;;;;;3.30;3.10;;;14.40;99.90;;;;;;4977262;28;21497;-67
2021/04/01 12:24:06;;;;;;;2.90;2.70;;;14.40;99.90;;;;;;4992015;28;20661;-66
2021/04/01 12:26:58;;;;;;;3.63;2.90;;;14.40;99.90;;;;;;4979708;28;20646;-69
2021/04/01 12:29:24;;;;;;;2.93;2.73;;;14.30;99.90;;;;;;4982166;28;21847;-66
2021/04/01 12:31:55;;;;;;;2.47;2.33;;;14.20;99.90;;;;;;4993404;28;20654;-64
2021/04/01 12:34:28;;;;;;;2.40;2.20;;;14.10;99.90;;;;;;4989050;28;20199;-67
2021/04/01 12:36:54;;;;;;;2.73;2.50;;;14.00;99.90;;;;;;5002516;28;20623;-66
2021/04/01 12:39:34;;;;;;;2.40;2.30;;;13.90;99.90;;;;;;4993965;28;20618;-64
2021/04/01 12:41:59;;;;;;;3.27;2.50;;;13.80;99.90;;;;;;4997253;28;21373;-67
2021/04/01 12:44:37;;;;;;;2.70;2.50;;;13.80;99.90;;;;;;4994984;28;20862;-67
2021/04/01 12:47:03;;;;;;;2.67;2.47;;;13.70;99.90;;;;;;5004964;28;20733;-66
2021/04/01 12:49:33;;;;;;;3.73;2.40;;;13.60;99.90;;;;;;4990849;28;20664;-67
2021/04/01 12:52:02;;;;;;;3.17;2.87;;;13.50;99.90;;;;;;4995289;28;20646;-67
2021/04/01 12:54:33;;;;;;;2.97;2.50;;;13.40;99.90;;;;;;5012008;28;20654;-64
2021/04/01 12:57:08;;;;;;;2.63;2.43;;;13.40;99.90;;;;;;4989311;28;20603;-66
2021/04/01 12:59:42;;;;;;;3.03;2.57;;;13.30;99.90;;;;;;5007388;28;20730;-68
2021/04/01 13:02:30;;;;;;;2.50;2.40;;;13.20;99.90;;;;;;4986290;28;23309;-66
2021/04/01 13:04:57;;;;;;;3.03;2.23;;;13.10;99.90;;;;;;4988026;28;20626;-67
2021/04/01 13:07:27;;;;;;;2.40;2.20;;;13.00;99.90;;;;;;4990199;28;20626;-66
2021/04/01 13:10:00;;;;;;;2.70;2.50;;;13.00;99.90;;;;;;5000475;28;20653;-67
2021/04/01 13:12:26;;;;;;;2.63;2.43;;;12.90;99.90;;;;;;4988604;28;20658;-68
2021/04/01 13:14:52;;;;;;;2.93;2.70;;;12.80;99.90;;;;;;4989520;28;20998;-68
2021/04/01 13:17:18;;;;;;;2.83;2.53;;;12.70;99.90;;;;;;4989096;28;20921;-69
2021/04/01 13:19:45;;;;;;;3.17;2.87;;;12.60;99.90;;;;;;4988887;28;20214;-74
2021/04/01 13:22:27;;;;;;;6.00;2.57;;;12.70;99.90;;;;;;4985195;28;20657;-77
2021/04/01 13:25:14;;;;;;;3.23;2.93;;;12.60;99.90;;;;;;4991935;28;20679;-75
2021/04/01 13:27:43;;;;;;;2.50;2.30;;;12.50;99.90;;;;;;4991052;28;20622;-68
2021/04/01 13:30:11;;;;;;;3.27;2.50;;;12.40;99.90;;;;;;4985184;28;21393;-68
2021/04/01 13:35:47;;;;;;;4.37;2.30;;;12.10;99.90;;;;;;4993903;28;20674;-67
2021/04/01 13:38:13;;;;;;;2.00;1.90;;;11.90;99.90;;;;;;4988710;28;20630;-67
2021/04/01 13:40:44;;;;;;;5.87;2.03;;;11.70;99.90;;;;;;4993644;28;20597;-71
2021/04/01 13:43:12;;;;;;;2.03;1.87;;;11.60;99.90;;;;;;4983826;28;20651;-67
2021/04/01 13:45:39;;;;;;;2.33;1.80;;;11.50;99.90;;;;;;4994168;28;20634;-68
2021/04/01 13:48:12;;;;;;;2.43;1.80;;;11.50;99.90;;;;;;4990207;28;21191;-67
2021/04/01 13:50:39;;;;;;;1.80;1.70;;;11.40;99.90;;;;;;4995154;28;20959;-67
2021/04/01 13:55:57;;;;;;;2.67;1.73;;;11.40;99.90;;;;;;5010441;28;20748;-67
2021/04/01 14:09:34;;;;;;;2.60;2.40;;;11.30;99.90;;;;;;4994046;28;20710;-66
2021/04/01 14:12:03;;;;;;;2.13;1.80;;;11.40;99.90;;;;;;4991732;28;20739;-66
2021/04/01 14:14:31;;;;;;;2.13;1.90;;;11.40;99.90;;;;;;4992601;28;20766;-67
2021/04/01 14:16:57;;;;;;;4.20;2.20;;;11.50;99.90;;;;;;4988449;28;20962;-68
2021/04/01 14:19:24;;;;;;;3.33;1.93;;;11.40;99.90;;;;;;4985340;28;20663;-68
2021/04/01 14:21:55;;;;;;;2.00;1.90;;;11.40;99.90;;;;;;4990674;28;21195;-67
2021/04/01 14:24:28;;;;;;;3.00;1.90;;;11.40;99.90;;;;;;4988586;28;20638;-67
2021/04/01 14:27:12;;;;;;;2.93;1.90;;;11.40;99.90;;;;;;4994811;28;20617;-67
2021/04/01 14:29:39;;;;;;;2.40;1.93;;;11.30;99.90;;;;;;4987612;28;21396;-74
2021/04/01 14:32:06;;;;;;;2.23;1.70;;;11.20;99.90;;;;;;4994148;28;20658;-69
2021/04/01 14:34:33;;;;;;;3.90;1.80;;;11.10;99.90;;;;;;4991089;28;20810;-66
2021/04/01 14:37:03;;;;;;;2.20;1.63;;;11.20;99.90;;;;;;4985724;28;20712;-66
2021/04/01 14:39:31;;;;;;;1.83;1.73;;;11.20;99.90;;;;;;4986511;28;20772;-67
2021/04/01 14:42:01;;;;;;;2.97;2.03;;;11.20;99.90;;;;;;4988302;28;20777;-66